Pagrindinis puslapis
METAR-TAF:

METAR-TAF

Oro uostai :

Jaundė, Kamerūnas

platuma: 03-50N, ilguma: 011-31E, Aukštis: 751 m

Dabartinis oras

Ataskaita buvo paskelbta 39 minutes, ne 08:00 UTC
Vėjas 4 kt iš Vakarų/Pietvakarių, svyruoja nuo Pietų ir Vakarų/Šiaurės Vakarų
Temperatūra 25°C
Drėgmė 89%
Slėgis 1017 hPa
Matomumas: 4000 m
Su prošvaistėmis ne aukštis 1100 ft
rūkana

METAR: FKYS 230800Z 25004KT 190V290 4000 BR BKN011 25/23 Q1017 BECMG 6000 NSW BKN016

Laikas: 09:39 (08:39 UTC)

Prognozė

Ataskaita buvo paskelbta 3 valandos ir 39 minutes, ne 05:00 UTC
Prognozė galioja nuo 23 metu 06 UTC su 24 metu 06 UTC
Vėjas 6 kt iš Vakarų/Pietvakarių
Matomumas: 2000 m
Mažai debesys ne aukštis 1000 ft
rūkana
Tapsmas
nuo 23 metu 06 UTC su 23 metu 08 UTC
Matomumas: 3500 m
Su prošvaistėmis ne aukštis 2000 ft
migla
Tapsmas
nuo 23 metu 14 UTC su 23 metu 16 UTC
Matomumas: 6000 m

TAF: FKYS 230500Z 2306/2406 24006KT 2000 BR FEW010 BECMG 2306/2308 3500 HZ BKN020 BECMG 2314/2316 6000 NSW

Orai ataskaitas ir orų prognozės (METAR, TAF).

turimą stotys yra geltonos ir raudonos taškus žemėlapyje.

Perkelti pele per norėdami pamatyti stoties vardą.

Tada spustelėkite, norėdami matyti oro stebėjimo ir prognozės.

Norėdami pakeisti žemėlapį: spustelėkite ant žalios mygtukų su juodo kryžiaus žemyn,; žalią mygtuką su brūkšneliu, jei norite nutolinti; arba žalių rodyklių gretimoms žemėlapius.


METAR-TAF: